Date,TemperatureHighF,TemperatureAvgF,TemperatureLowF,DewpointHighF,DewpointAvgF,DewpointLowF,HumidityHigh,HumidityAvg,HumidityLow,PressureMaxIn,PressureMinIn,WindSpeedMaxMPH,WindSpeedAvgMPH,GustSpeedMaxMPH,PrecipitationSumIn
2013-9-1,91.4,78.8,71.6,80.9,74.7,69.6,98,88,62,29.94,29.85,18,1,20,0.33
2013-9-2,89.7,78.5,73.5,82.7,75.8,71.6,99,92,65,30.00,29.89,14,1,20,0.16
2013-9-3,89.6,78.3,73.5,81.6,75.2,71.2,99,91,67,29.99,29.88,16,1,16,0.00
2013-9-4,89.6,79.3,71.4,81.2,75.3,70.8,99,88,66,30.08,29.96,13,1,13,0.00
2013-9-5,90.3,80.1,71.7,81.1,75.1,71.1,99,86,65,30.12,30.03,11,1,12,0.00
2013-9-6,91.8,80.7,72.3,76.0,72.5,68.7,98,78,50,30.09,29.98,10,0,10,0.00
2013-9-7,90.0,78.9,70.9,77.8,72.3,68.6,97,81,55,30.04,29.96,14,1,15,0.00
2013-9-8,89.8,78.9,69.9,77.0,71.7,68.0,99,81,50,30.00,29.93,11,1,11,0.00
2013-9-9,91.2,79.3,69.3,76.7,71.3,67.4,99,79,49,30.04,29.96,15,1,15,0.00
2013-9-10,89.3,79.9,73.2,76.8,72.6,70.2,95,79,57,30.12,30.02,19,2,19,0.00
2013-9-11,90.5,79.5,72.2,74.6,71.6,68.1,96,79,52,30.12,30.02,13,1,14,0.00
2013-9-12,89.0,79.6,72.4,76.6,72.7,70.2,95,80,59,30.04,29.91,12,1,12,0.00
2013-9-13,93.1,80.3,69.9,77.1,72.4,68.3,99,79,45,29.93,29.80,13,1,15,0.00
2013-9-14,88.5,79.1,72.9,74.1,70.0,65.8,91,75,55,29.99,29.84,10,1,10,0.00
2013-9-15,89.9,79.4,70.6,76.5,70.6,64.1,95,75,58,30.06,29.97,14,1,14,0.00
2013-9-16,89.4,78.7,72.7,80.5,74.5,68.5,98,88,63,30.08,29.99,28,1,28,2.15
2013-9-17,90.0,79.1,71.2,77.8,73.6,70.4,98,84,58,30.07,29.97,15,1,15,0.01
2013-9-18,86.5,77.5,73.2,78.3,73.0,70.5,96,87,65,30.09,30.01,13,2,13,0.04
2013-9-19,86.5,78.4,71.7,74.1,71.1,67.8,95,79,56,30.08,29.99,14,2,16,0.00
2013-9-20,87.5,78.9,71.9,80.5,74.2,69.0,97,86,71,30.02,29.86,15,2,18,0.60
2013-9-21,81.8,77.2,73.7,79.2,75.0,72.8,98,93,81,29.86,29.72,23,2,23,2.94
2013-9-22,80.0,73.7,69.7,74.9,71.9,68.8,99,94,82,29.80,29.72,11,1,11,0.26
2013-9-23,87.6,78.7,71.9,79.3,74.6,71.0,98,88,69,29.89,29.77,12,2,12,2.84
2013-9-24,82.7,76.4,71.2,78.3,74.7,70.1,99,94,83,29.90,29.77,13,1,16,2.84
2013-9-25,87.2,77.0,69.1,80.0,73.4,68.5,99,89,66,29.81,29.73,12,0,12,0.00
2013-9-26,86.5,74.9,66.0,76.1,70.1,65.7,99,86,61,29.95,29.80,10,1,11,0.00
2013-9-27,84.6,73.0,63.4,69.3,64.9,61.2,96,77,52,30.04,29.94,11,1,11,0.00
2013-9-28,85.2,71.5,61.8,68.0,62.4,58.8,95,75,46,30.09,30.01,13,2,13,0.00
2013-9-29,82.3,71.1,63.1,69.2,63.7,58.5,95,78,59,30.06,29.95,12,1,12,0.00
2013-9-30,82.5,73.9,67.6,73.5,68.8,63.5,95,84,66,30.00,29.92,6,0,7,0.01